sensor_id;sensor_type;location;lat;lon;timestamp;P1;durP1;ratioP1;P2;durP2;ratioP2
59607;SDS011;45426;44.726;10.390;2022-10-18T00:01:01;41.17;;;20.83;;
59607;SDS011;45426;44.726;10.390;2022-10-18T00:03:27;43.63;;;21.60;;
59607;SDS011;45426;44.726;10.390;2022-10-18T00:05:52;41.75;;;19.95;;
59607;SDS011;45426;44.726;10.390;2022-10-18T00:08:18;38.90;;;19.30;;
59607;SDS011;45426;44.726;10.390;2022-10-18T00:10:44;37.70;;;18.73;;
59607;SDS011;45426;44.726;10.390;2022-10-18T00:13:10;36.30;;;18.85;;
59607;SDS011;45426;44.726;10.390;2022-10-18T00:15:36;38.55;;;19.48;;
59607;SDS011;45426;44.726;10.390;2022-10-18T00:18:01;39.55;;;20.00;;
59607;SDS011;45426;44.726;10.390;2022-10-18T00:20:26;39.35;;;19.52;;
59607;SDS011;45426;44.726;10.390;2022-10-18T00:22:52;36.20;;;19.00;;
59607;SDS011;45426;44.726;10.390;2022-10-18T00:25:18;37.47;;;19.45;;
59607;SDS011;45426;44.726;10.390;2022-10-18T00:27:43;43.17;;;20.30;;
59607;SDS011;45426;44.726;10.390;2022-10-18T00:30:09;38.58;;;20.10;;
59607;SDS011;45426;44.726;10.390;2022-10-18T00:32:35;34.63;;;19.15;;
59607;SDS011;45426;44.726;10.390;2022-10-18T00:35:02;37.10;;;19.40;;
59607;SDS011;45426;44.726;10.390;2022-10-18T00:37:28;35.72;;;18.85;;
59607;SDS011;45426;44.726;10.390;2022-10-18T00:39:53;36.72;;;18.83;;
59607;SDS011;45426;44.726;10.390;2022-10-18T00:42:19;35.80;;;18.63;;
59607;SDS011;45426;44.726;10.390;2022-10-18T00:47:15;35.70;;;18.02;;
59607;SDS011;45426;44.726;10.390;2022-10-18T00:49:47;41.05;;;19.55;;
59607;SDS011;45426;44.726;10.390;2022-10-18T00:52:18;36.00;;;17.92;;
59607;SDS011;45426;44.726;10.390;2022-10-18T00:54:48;36.42;;;18.80;;
59607;SDS011;45426;44.726;10.390;2022-10-18T00:57:15;37.72;;;19.33;;
59607;SDS011;45426;44.726;10.390;2022-10-18T00:59:41;34.95;;;17.55;;
59607;SDS011;45426;44.726;10.390;2022-10-18T01:02:08;38.72;;;18.92;;
59607;SDS011;45426;44.726;10.390;2022-10-18T01:04:34;35.05;;;17.98;;
59607;SDS011;45426;44.726;10.390;2022-10-18T01:15:02;31.92;;;16.95;;
59607;SDS011;45426;44.726;10.390;2022-10-18T01:23:19;27.20;;;15.27;;
59607;SDS011;45426;44.726;10.390;2022-10-18T01:31:22;32.33;;;15.55;;
59607;SDS011;45426;44.726;10.390;2022-10-18T01:34:02;34.20;;;16.38;;
59607;SDS011;45426;44.726;10.390;2022-10-18T01:36:32;29.85;;;15.57;;
59607;SDS011;45426;44.726;10.390;2022-10-18T01:38:58;34.15;;;15.02;;
59607;SDS011;45426;44.726;10.390;2022-10-18T01:41:31;28.98;;;15.25;;
59607;SDS011;45426;44.726;10.390;2022-10-18T01:44:00;31.75;;;16.33;;
59607;SDS011;45426;44.726;10.390;2022-10-18T01:46:28;31.00;;;15.55;;
59607;SDS011;45426;44.726;10.390;2022-10-18T01:48:54;29.40;;;15.50;;
59607;SDS011;45426;44.726;10.390;2022-10-18T01:51:24;33.33;;;16.33;;
59607;SDS011;45426;44.726;10.390;2022-10-18T01:53:51;29.48;;;15.70;;
59607;SDS011;45426;44.726;10.390;2022-10-18T01:59:41;29.65;;;15.07;;
59607;SDS011;45426;44.726;10.390;2022-10-18T02:02:01;31.92;;;15.65;;
59607;SDS011;45426;44.726;10.390;2022-10-18T02:07:05;29.70;;;15.23;;
59607;SDS011;45426;44.726;10.390;2022-10-18T02:09:39;30.35;;;15.00;;
59607;SDS011;45426;44.726;10.390;2022-10-18T02:12:11;31.38;;;15.70;;
59607;SDS011;45426;44.726;10.390;2022-10-18T02:14:39;32.05;;;15.52;;
59607;SDS011;45426;44.726;10.390;2022-10-18T02:17:07;26.20;;;14.23;;
59607;SDS011;45426;44.726;10.390;2022-10-18T02:19:39;25.92;;;14.00;;
59607;SDS011;45426;44.726;10.390;2022-10-18T02:22:09;29.60;;;15.35;;
59607;SDS011;45426;44.726;10.390;2022-10-18T02:24:37;29.60;;;15.00;;
59607;SDS011;45426;44.726;10.390;2022-10-18T02:27:06;27.73;;;14.23;;
59607;SDS011;45426;44.726;10.390;2022-10-18T02:29:32;28.25;;;14.20;;
59607;SDS011;45426;44.726;10.390;2022-10-18T02:32:18;26.23;;;14.05;;
59607;SDS011;45426;44.726;10.390;2022-10-18T02:37:50;29.67;;;14.13;;
59607;SDS011;45426;44.726;10.390;2022-10-18T02:40:18;32.60;;;15.77;;
59607;SDS011;45426;44.726;10.390;2022-10-18T02:42:52;32.58;;;15.55;;
59607;SDS011;45426;44.726;10.390;2022-10-18T02:45:19;30.60;;;15.13;;
59607;SDS011;45426;44.726;10.390;2022-10-18T02:47:45;30.65;;;15.65;;
59607;SDS011;45426;44.726;10.390;2022-10-18T02:50:11;30.20;;;15.80;;
59607;SDS011;45426;44.726;10.390;2022-10-18T02:52:37;30.40;;;14.70;;
59607;SDS011;45426;44.726;10.390;2022-10-18T02:55:03;28.48;;;14.68;;
59607;SDS011;45426;44.726;10.390;2022-10-18T02:57:29;29.77;;;14.45;;
59607;SDS011;45426;44.726;10.390;2022-10-18T02:59:55;32.45;;;15.93;;
59607;SDS011;45426;44.726;10.390;2022-10-18T03:02:20;30.45;;;15.27;;
59607;SDS011;45426;44.726;10.390;2022-10-18T03:04:46;31.15;;;15.52;;
59607;SDS011;45426;44.726;10.390;2022-10-18T03:07:12;31.48;;;16.05;;
59607;SDS011;45426;44.726;10.390;2022-10-18T03:09:37;28.30;;;14.68;;
59607;SDS011;45426;44.726;10.390;2022-10-18T03:12:02;30.70;;;15.73;;
59607;SDS011;45426;44.726;10.390;2022-10-18T03:14:28;26.98;;;14.48;;
59607;SDS011;45426;44.726;10.390;2022-10-18T03:16:53;28.63;;;13.85;;
59607;SDS011;45426;44.726;10.390;2022-10-18T03:19:19;25.48;;;13.60;;
59607;SDS011;45426;44.726;10.390;2022-10-18T03:21:44;27.75;;;14.15;;
59607;SDS011;45426;44.726;10.390;2022-10-18T03:24:10;26.77;;;13.52;;
59607;SDS011;45426;44.726;10.390;2022-10-18T03:26:35;25.60;;;13.88;;
59607;SDS011;45426;44.726;10.390;2022-10-18T03:29:00;29.38;;;13.48;;
59607;SDS011;45426;44.726;10.390;2022-10-18T03:31:26;24.00;;;13.55;;
59607;SDS011;45426;44.726;10.390;2022-10-18T03:33:51;24.45;;;13.35;;
59607;SDS011;45426;44.726;10.390;2022-10-18T03:36:16;24.60;;;13.30;;
59607;SDS011;45426;44.726;10.390;2022-10-18T03:38:42;25.25;;;12.98;;
59607;SDS011;45426;44.726;10.390;2022-10-18T03:41:07;25.02;;;13.27;;
59607;SDS011;45426;44.726;10.390;2022-10-18T03:43:33;25.50;;;12.93;;
59607;SDS011;45426;44.726;10.390;2022-10-18T03:45:59;22.83;;;12.77;;
59607;SDS011;45426;44.726;10.390;2022-10-18T03:48:25;26.25;;;12.40;;
59607;SDS011;45426;44.726;10.390;2022-10-18T03:50:50;23.98;;;11.90;;
59607;SDS011;45426;44.726;10.390;2022-10-18T03:53:16;22.13;;;11.63;;
59607;SDS011;45426;44.726;10.390;2022-10-18T03:55:41;21.73;;;11.57;;
59607;SDS011;45426;44.726;10.390;2022-10-18T03:58:07;22.00;;;10.82;;
59607;SDS011;45426;44.726;10.390;2022-10-18T04:00:32;17.95;;;10.68;;
59607;SDS011;45426;44.726;10.390;2022-10-18T04:02:58;21.70;;;10.80;;
59607;SDS011;45426;44.726;10.390;2022-10-18T04:05:23;22.15;;;11.20;;
59607;SDS011;45426;44.726;10.390;2022-10-18T04:07:51;21.20;;;11.07;;
59607;SDS011;45426;44.726;10.390;2022-10-18T04:10:17;23.50;;;11.20;;
59607;SDS011;45426;44.726;10.390;2022-10-18T04:12:42;19.27;;;10.80;;
59607;SDS011;45426;44.726;10.390;2022-10-18T04:15:08;19.27;;;10.05;;
59607;SDS011;45426;44.726;10.390;2022-10-18T04:17:34;18.55;;;10.32;;
59607;SDS011;45426;44.726;10.390;2022-10-18T04:19:59;19.08;;;10.63;;
59607;SDS011;45426;44.726;10.390;2022-10-18T04:22:25;20.23;;;11.52;;
59607;SDS011;45426;44.726;10.390;2022-10-18T04:24:50;21.80;;;10.88;;
59607;SDS011;45426;44.726;10.390;2022-10-18T04:27:17;20.08;;;10.30;;
59607;SDS011;45426;44.726;10.390;2022-10-18T04:29:42;23.35;;;11.77;;
59607;SDS011;45426;44.726;10.390;2022-10-18T04:32:08;19.73;;;10.90;;
59607;SDS011;45426;44.726;10.390;2022-10-18T04:34:33;18.45;;;10.55;;
59607;SDS011;45426;44.726;10.390;2022-10-18T04:36:59;19.10;;;10.30;;
59607;SDS011;45426;44.726;10.390;2022-10-18T04:39:24;20.40;;;10.48;;
59607;SDS011;45426;44.726;10.390;2022-10-18T04:41:49;19.33;;;10.77;;
59607;SDS011;45426;44.726;10.390;2022-10-18T04:44:15;18.85;;;10.27;;
59607;SDS011;45426;44.726;10.390;2022-10-18T04:46:40;20.88;;;10.73;;
59607;SDS011;45426;44.726;10.390;2022-10-18T04:49:05;20.05;;;10.43;;
59607;SDS011;45426;44.726;10.390;2022-10-18T04:51:31;24.08;;;11.02;;
59607;SDS011;45426;44.726;10.390;2022-10-18T04:53:56;18.65;;;10.85;;
59607;SDS011;45426;44.726;10.390;2022-10-18T04:56:22;20.88;;;11.35;;
59607;SDS011;45426;44.726;10.390;2022-10-18T04:58:47;20.05;;;11.05;;
59607;SDS011;45426;44.726;10.390;2022-10-18T05:01:12;21.00;;;11.05;;
59607;SDS011;45426;44.726;10.390;2022-10-18T05:03:38;20.48;;;10.77;;
59607;SDS011;45426;44.726;10.390;2022-10-18T05:06:03;19.60;;;10.63;;
59607;SDS011;45426;44.726;10.390;2022-10-18T05:08:30;21.73;;;11.18;;
59607;SDS011;45426;44.726;10.390;2022-10-18T05:10:58;21.00;;;11.40;;
59607;SDS011;45426;44.726;10.390;2022-10-18T05:13:24;21.33;;;11.10;;
59607;SDS011;45426;44.726;10.390;2022-10-18T05:15:49;21.77;;;11.20;;
59607;SDS011;45426;44.726;10.390;2022-10-18T05:18:15;22.02;;;11.23;;
59607;SDS011;45426;44.726;10.390;2022-10-18T05:20:40;21.65;;;10.85;;
59607;SDS011;45426;44.726;10.390;2022-10-18T05:23:06;19.75;;;10.80;;
59607;SDS011;45426;44.726;10.390;2022-10-18T05:25:36;18.55;;;10.35;;
59607;SDS011;45426;44.726;10.390;2022-10-18T05:28:07;19.85;;;10.18;;
59607;SDS011;45426;44.726;10.390;2022-10-18T05:30:36;19.00;;;10.25;;
59607;SDS011;45426;44.726;10.390;2022-10-18T05:33:01;19.45;;;10.35;;
59607;SDS011;45426;44.726;10.390;2022-10-18T05:35:27;18.98;;;10.63;;
59607;SDS011;45426;44.726;10.390;2022-10-18T05:37:52;21.50;;;10.63;;
59607;SDS011;45426;44.726;10.390;2022-10-18T05:40:18;20.42;;;10.73;;
59607;SDS011;45426;44.726;10.390;2022-10-18T05:42:43;21.38;;;11.10;;
59607;SDS011;45426;44.726;10.390;2022-10-18T05:45:09;20.45;;;11.10;;
59607;SDS011;45426;44.726;10.390;2022-10-18T05:47:34;37.22;;;11.90;;
59607;SDS011;45426;44.726;10.390;2022-10-18T05:50:00;22.15;;;10.77;;
59607;SDS011;45426;44.726;10.390;2022-10-18T05:52:25;20.13;;;10.85;;
59607;SDS011;45426;44.726;10.390;2022-10-18T05:54:50;19.65;;;10.35;;
59607;SDS011;45426;44.726;10.390;2022-10-18T05:57:16;20.92;;;10.80;;
59607;SDS011;45426;44.726;10.390;2022-10-18T05:59:42;20.73;;;10.43;;
59607;SDS011;45426;44.726;10.390;2022-10-18T06:02:08;20.58;;;11.40;;
59607;SDS011;45426;44.726;10.390;2022-10-18T06:04:35;21.35;;;11.15;;
59607;SDS011;45426;44.726;10.390;2022-10-18T06:07:00;21.67;;;11.25;;
59607;SDS011;45426;44.726;10.390;2022-10-18T06:09:26;21.20;;;11.00;;
59607;SDS011;45426;44.726;10.390;2022-10-18T06:11:52;19.48;;;10.60;;
59607;SDS011;45426;44.726;10.390;2022-10-18T06:14:18;20.67;;;10.45;;
59607;SDS011;45426;44.726;10.390;2022-10-18T06:16:43;24.67;;;10.73;;
59607;SDS011;45426;44.726;10.390;2022-10-18T06:19:09;22.58;;;10.25;;
59607;SDS011;45426;44.726;10.390;2022-10-18T06:21:34;22.10;;;10.38;;
59607;SDS011;45426;44.726;10.390;2022-10-18T06:23:59;22.25;;;10.85;;
59607;SDS011;45426;44.726;10.390;2022-10-18T06:26:26;21.48;;;10.68;;
59607;SDS011;45426;44.726;10.390;2022-10-18T06:28:52;20.15;;;10.20;;
59607;SDS011;45426;44.726;10.390;2022-10-18T06:31:17;17.15;;;9.27;;
59607;SDS011;45426;44.726;10.390;2022-10-18T06:33:44;18.08;;;9.48;;
59607;SDS011;45426;44.726;10.390;2022-10-18T06:36:11;17.65;;;9.48;;
59607;SDS011;45426;44.726;10.390;2022-10-18T06:38:38;17.83;;;9.23;;
59607;SDS011;45426;44.726;10.390;2022-10-18T06:41:04;18.15;;;9.50;;
59607;SDS011;45426;44.726;10.390;2022-10-18T06:43:30;16.52;;;10.10;;
59607;SDS011;45426;44.726;10.390;2022-10-18T06:45:56;16.75;;;9.35;;
59607;SDS011;45426;44.726;10.390;2022-10-18T06:48:22;17.08;;;9.35;;
59607;SDS011;45426;44.726;10.390;2022-10-18T06:50:55;17.70;;;9.32;;
59607;SDS011;45426;44.726;10.390;2022-10-18T06:53:26;15.20;;;8.77;;
59607;SDS011;45426;44.726;10.390;2022-10-18T06:55:57;19.17;;;8.80;;
59607;SDS011;45426;44.726;10.390;2022-10-18T06:58:24;18.40;;;9.75;;
59607;SDS011;45426;44.726;10.390;2022-10-18T07:00:50;18.33;;;9.13;;
59607;SDS011;45426;44.726;10.390;2022-10-18T07:03:15;16.35;;;8.27;;
59607;SDS011;45426;44.726;10.390;2022-10-18T07:05:40;17.40;;;9.32;;
59607;SDS011;45426;44.726;10.390;2022-10-18T07:08:06;15.60;;;9.02;;
59607;SDS011;45426;44.726;10.390;2022-10-18T07:10:31;15.57;;;8.80;;
59607;SDS011;45426;44.726;10.390;2022-10-18T07:12:56;17.90;;;9.15;;
59607;SDS011;45426;44.726;10.390;2022-10-18T07:15:22;15.57;;;8.80;;
59607;SDS011;45426;44.726;10.390;2022-10-18T07:17:48;16.65;;;8.88;;
59607;SDS011;45426;44.726;10.390;2022-10-18T07:20:14;16.48;;;8.57;;
59607;SDS011;45426;44.726;10.390;2022-10-18T07:22:40;18.42;;;9.10;;
59607;SDS011;45426;44.726;10.390;2022-10-18T07:25:05;14.55;;;8.38;;
59607;SDS011;45426;44.726;10.390;2022-10-18T07:27:35;15.82;;;8.10;;
59607;SDS011;45426;44.726;10.390;2022-10-18T07:30:02;14.85;;;7.78;;
59607;SDS011;45426;44.726;10.390;2022-10-18T07:32:29;15.10;;;8.35;;
59607;SDS011;45426;44.726;10.390;2022-10-18T07:34:55;14.57;;;8.02;;
59607;SDS011;45426;44.726;10.390;2022-10-18T07:37:20;16.40;;;8.43;;
59607;SDS011;45426;44.726;10.390;2022-10-18T07:39:46;14.85;;;7.82;;
59607;SDS011;45426;44.726;10.390;2022-10-18T07:42:11;17.77;;;8.02;;
59607;SDS011;45426;44.726;10.390;2022-10-18T07:44:36;13.88;;;8.18;;
59607;SDS011;45426;44.726;10.390;2022-10-18T07:47:03;16.95;;;8.68;;
59607;SDS011;45426;44.726;10.390;2022-10-18T07:49:29;14.95;;;8.30;;
59607;SDS011;45426;44.726;10.390;2022-10-18T07:51:54;15.20;;;8.20;;
59607;SDS011;45426;44.726;10.390;2022-10-18T07:54:20;17.15;;;8.85;;
59607;SDS011;45426;44.726;10.390;2022-10-18T07:56:46;16.38;;;8.40;;
59607;SDS011;45426;44.726;10.390;2022-10-18T07:59:12;17.48;;;8.93;;
59607;SDS011;45426;44.726;10.390;2022-10-18T08:01:37;20.23;;;8.82;;
59607;SDS011;45426;44.726;10.390;2022-10-18T08:04:02;16.98;;;9.00;;
59607;SDS011;45426;44.726;10.390;2022-10-18T08:06:28;16.88;;;8.90;;
59607;SDS011;45426;44.726;10.390;2022-10-18T08:08:53;17.42;;;8.93;;
59607;SDS011;45426;44.726;10.390;2022-10-18T08:11:20;18.75;;;9.18;;
59607;SDS011;45426;44.726;10.390;2022-10-18T08:13:47;21.30;;;9.35;;
59607;SDS011;45426;44.726;10.390;2022-10-18T08:16:14;19.80;;;9.43;;
59607;SDS011;45426;44.726;10.390;2022-10-18T08:18:42;23.33;;;10.68;;
59607;SDS011;45426;44.726;10.390;2022-10-18T08:21:08;19.58;;;10.60;;
59607;SDS011;45426;44.726;10.390;2022-10-18T08:23:35;16.65;;;9.55;;
59607;SDS011;45426;44.726;10.390;2022-10-18T08:26:03;20.92;;;10.30;;
59607;SDS011;45426;44.726;10.390;2022-10-18T08:28:30;22.85;;;12.85;;
59607;SDS011;45426;44.726;10.390;2022-10-18T08:30:56;28.40;;;14.73;;
59607;SDS011;45426;44.726;10.390;2022-10-18T08:33:25;27.58;;;15.45;;
59607;SDS011;45426;44.726;10.390;2022-10-18T08:35:54;32.72;;;17.73;;
59607;SDS011;45426;44.726;10.390;2022-10-18T08:38:20;32.15;;;17.83;;
59607;SDS011;45426;44.726;10.390;2022-10-18T08:40:45;35.72;;;18.90;;
59607;SDS011;45426;44.726;10.390;2022-10-18T08:46:00;31.45;;;17.25;;
59607;SDS011;45426;44.726;10.390;2022-10-18T08:48:31;31.50;;;17.95;;
59607;SDS011;45426;44.726;10.390;2022-10-18T08:51:01;35.55;;;19.10;;
59607;SDS011;45426;44.726;10.390;2022-10-18T08:53:32;36.72;;;20.30;;
59607;SDS011;45426;44.726;10.390;2022-10-18T08:56:10;42.25;;;20.25;;
59607;SDS011;45426;44.726;10.390;2022-10-18T08:58:39;33.30;;;18.92;;
59607;SDS011;45426;44.726;10.390;2022-10-18T09:17:46;41.50;;;21.63;;
59607;SDS011;45426;44.726;10.390;2022-10-18T09:26:16;42.38;;;24.00;;
59607;SDS011;45426;44.726;10.390;2022-10-18T09:31:25;47.15;;;25.23;;
59607;SDS011;45426;44.726;10.390;2022-10-18T09:34:04;47.85;;;25.45;;
59607;SDS011;45426;44.726;10.390;2022-10-18T09:36:36;51.38;;;25.42;;
59607;SDS011;45426;44.726;10.390;2022-10-18T09:39:12;47.22;;;24.02;;
59607;SDS011;45426;44.726;10.390;2022-10-18T09:42:02;43.10;;;24.77;;
59607;SDS011;45426;44.726;10.390;2022-10-18T09:44:51;43.67;;;23.90;;
59607;SDS011;45426;44.726;10.390;2022-10-18T09:47:27;48.17;;;23.63;;
59607;SDS011;45426;44.726;10.390;2022-10-18T09:50:22;41.90;;;23.08;;
59607;SDS011;45426;44.726;10.390;2022-10-18T09:52:50;50.58;;;25.40;;
59607;SDS011;45426;44.726;10.390;2022-10-18T09:55:32;49.40;;;25.27;;
59607;SDS011;45426;44.726;10.390;2022-10-18T09:58:03;50.50;;;26.05;;
59607;SDS011;45426;44.726;10.390;2022-10-18T10:00:32;52.00;;;27.20;;
59607;SDS011;45426;44.726;10.390;2022-10-18T10:03:06;56.42;;;28.33;;
59607;SDS011;45426;44.726;10.390;2022-10-18T10:05:36;50.42;;;27.20;;
59607;SDS011;45426;44.726;10.390;2022-10-18T10:08:02;55.13;;;29.15;;
59607;SDS011;45426;44.726;10.390;2022-10-18T10:10:29;52.55;;;28.05;;
59607;SDS011;45426;44.726;10.390;2022-10-18T10:15:54;55.28;;;28.20;;
59607;SDS011;45426;44.726;10.390;2022-10-18T10:18:21;51.63;;;27.57;;
59607;SDS011;45426;44.726;10.390;2022-10-18T10:20:54;51.30;;;27.13;;
59607;SDS011;45426;44.726;10.390;2022-10-18T10:26:03;60.58;;;28.50;;
59607;SDS011;45426;44.726;10.390;2022-10-18T10:28:34;53.17;;;27.13;;
59607;SDS011;45426;44.726;10.390;2022-10-18T10:33:44;52.03;;;26.45;;
59607;SDS011;45426;44.726;10.390;2022-10-18T10:36:19;52.65;;;27.00;;
59607;SDS011;45426;44.726;10.390;2022-10-18T10:38:45;49.88;;;27.20;;
59607;SDS011;45426;44.726;10.390;2022-10-18T10:41:28;48.40;;;26.25;;
59607;SDS011;45426;44.726;10.390;2022-10-18T10:43:53;50.65;;;26.60;;
59607;SDS011;45426;44.726;10.390;2022-10-18T10:46:19;55.03;;;28.05;;
59607;SDS011;45426;44.726;10.390;2022-10-18T10:48:57;55.83;;;28.25;;
59607;SDS011;45426;44.726;10.390;2022-10-18T10:51:34;55.38;;;29.13;;
59607;SDS011;45426;44.726;10.390;2022-10-18T10:54:06;51.38;;;27.90;;
59607;SDS011;45426;44.726;10.390;2022-10-18T10:56:57;55.45;;;29.23;;
59607;SDS011;45426;44.726;10.390;2022-10-18T10:59:25;59.70;;;29.70;;
59607;SDS011;45426;44.726;10.390;2022-10-18T11:04:38;54.25;;;28.55;;
59607;SDS011;45426;44.726;10.390;2022-10-18T11:09:36;54.55;;;28.73;;
59607;SDS011;45426;44.726;10.390;2022-10-18T11:12:19;62.17;;;30.05;;
59607;SDS011;45426;44.726;10.390;2022-10-18T11:15:05;51.13;;;27.63;;
59607;SDS011;45426;44.726;10.390;2022-10-18T11:23:15;57.90;;;28.90;;
59607;SDS011;45426;44.726;10.390;2022-10-18T11:25:47;55.42;;;28.23;;
59607;SDS011;45426;44.726;10.390;2022-10-18T11:41:00;53.85;;;28.30;;
59607;SDS011;45426;44.726;10.390;2022-10-18T11:43:41;53.83;;;28.45;;
59607;SDS011;45426;44.726;10.390;2022-10-18T11:46:20;55.90;;;29.23;;
59607;SDS011;45426;44.726;10.390;2022-10-18T11:59:50;54.63;;;29.00;;
59607;SDS011;45426;44.726;10.390;2022-10-18T12:05:21;55.58;;;29.58;;
59607;SDS011;45426;44.726;10.390;2022-10-18T12:10:33;54.03;;;28.45;;
59607;SDS011;45426;44.726;10.390;2022-10-18T12:13:00;55.50;;;28.38;;
59607;SDS011;45426;44.726;10.390;2022-10-18T12:15:30;52.83;;;28.05;;
59607;SDS011;45426;44.726;10.390;2022-10-18T12:18:04;51.95;;;26.42;;
59607;SDS011;45426;44.726;10.390;2022-10-18T12:20:56;48.05;;;24.85;;
59607;SDS011;45426;44.726;10.390;2022-10-18T12:25:54;47.78;;;25.80;;
59607;SDS011;45426;44.726;10.390;2022-10-18T12:31:15;48.47;;;25.75;;
59607;SDS011;45426;44.726;10.390;2022-10-18T12:33:44;49.47;;;26.67;;
59607;SDS011;45426;44.726;10.390;2022-10-18T12:39:25;52.35;;;25.85;;
59607;SDS011;45426;44.726;10.390;2022-10-18T12:41:57;52.15;;;28.02;;
59607;SDS011;45426;44.726;10.390;2022-10-18T12:44:27;51.65;;;26.90;;
59607;SDS011;45426;44.726;10.390;2022-10-18T12:46:56;55.38;;;28.10;;
59607;SDS011;45426;44.726;10.390;2022-10-18T12:51:58;51.55;;;27.25;;
59607;SDS011;45426;44.726;10.390;2022-10-18T12:54:30;52.80;;;28.08;;
59607;SDS011;45426;44.726;10.390;2022-10-18T12:57:00;54.53;;;28.77;;
59607;SDS011;45426;44.726;10.390;2022-10-18T13:09:21;45.28;;;24.85;;
59607;SDS011;45426;44.726;10.390;2022-10-18T13:11:47;41.88;;;23.75;;
59607;SDS011;45426;44.726;10.390;2022-10-18T13:24:45;44.92;;;25.33;;
59607;SDS011;45426;44.726;10.390;2022-10-18T13:30:14;49.10;;;26.55;;
59607;SDS011;45426;44.726;10.390;2022-10-18T13:41:19;50.58;;;28.13;;
59607;SDS011;45426;44.726;10.390;2022-10-18T13:43:56;49.67;;;26.58;;
59607;SDS011;45426;44.726;10.390;2022-10-18T14:05:29;48.38;;;26.33;;
59607;SDS011;45426;44.726;10.390;2022-10-18T14:08:41;51.90;;;28.40;;
59607;SDS011;45426;44.726;10.390;2022-10-18T14:13:41;53.47;;;28.48;;
59607;SDS011;45426;44.726;10.390;2022-10-18T14:18:49;51.05;;;28.40;;
59607;SDS011;45426;44.726;10.390;2022-10-18T14:21:21;53.70;;;27.33;;
59607;SDS011;45426;44.726;10.390;2022-10-18T14:23:53;49.97;;;27.85;;
59607;SDS011;45426;44.726;10.390;2022-10-18T14:26:19;57.67;;;28.05;;
59607;SDS011;45426;44.726;10.390;2022-10-18T14:28:46;48.13;;;26.48;;
59607;SDS011;45426;44.726;10.390;2022-10-18T14:31:30;49.92;;;27.50;;
59607;SDS011;45426;44.726;10.390;2022-10-18T14:33:56;53.95;;;27.38;;
59607;SDS011;45426;44.726;10.390;2022-10-18T14:36:22;50.53;;;25.48;;
59607;SDS011;45426;44.726;10.390;2022-10-18T14:38:54;46.92;;;26.17;;
59607;SDS011;45426;44.726;10.390;2022-10-18T14:43:47;51.90;;;28.63;;
59607;SDS011;45426;44.726;10.390;2022-10-18T14:49:00;56.38;;;29.00;;
59607;SDS011;45426;44.726;10.390;2022-10-18T14:51:29;50.80;;;28.02;;
59607;SDS011;45426;44.726;10.390;2022-10-18T14:53:57;54.35;;;28.95;;
59607;SDS011;45426;44.726;10.390;2022-10-18T14:56:30;55.72;;;28.58;;
59607;SDS011;45426;44.726;10.390;2022-10-18T14:59:01;53.20;;;28.30;;
59607;SDS011;45426;44.726;10.390;2022-10-18T15:01:29;51.10;;;27.35;;
59607;SDS011;45426;44.726;10.390;2022-10-18T15:04:00;53.33;;;27.88;;
59607;SDS011;45426;44.726;10.390;2022-10-18T15:06:29;54.55;;;28.42;;
59607;SDS011;45426;44.726;10.390;2022-10-18T15:08:56;49.05;;;28.30;;
59607;SDS011;45426;44.726;10.390;2022-10-18T15:11:25;48.97;;;27.50;;
59607;SDS011;45426;44.726;10.390;2022-10-18T15:13:53;55.25;;;27.92;;
59607;SDS011;45426;44.726;10.390;2022-10-18T15:16:21;54.15;;;28.00;;
59607;SDS011;45426;44.726;10.390;2022-10-18T15:21:52;50.17;;;28.35;;
59607;SDS011;45426;44.726;10.390;2022-10-18T15:26:51;49.97;;;26.63;;
59607;SDS011;45426;44.726;10.390;2022-10-18T15:29:19;50.08;;;27.73;;
59607;SDS011;45426;44.726;10.390;2022-10-18T15:31:48;52.55;;;27.38;;
59607;SDS011;45426;44.726;10.390;2022-10-18T15:34:21;58.40;;;26.30;;
59607;SDS011;45426;44.726;10.390;2022-10-18T15:36:50;48.90;;;27.05;;
59607;SDS011;45426;44.726;10.390;2022-10-18T15:41:48;47.40;;;25.92;;
59607;SDS011;45426;44.726;10.390;2022-10-18T15:46:43;47.85;;;25.15;;
59607;SDS011;45426;44.726;10.390;2022-10-18T15:54:53;53.20;;;26.75;;
59607;SDS011;45426;44.726;10.390;2022-10-18T15:57:19;47.38;;;25.50;;
59607;SDS011;45426;44.726;10.390;2022-10-18T15:59:52;51.63;;;27.40;;
59607;SDS011;45426;44.726;10.390;2022-10-18T16:02:37;47.97;;;25.90;;
59607;SDS011;45426;44.726;10.390;2022-10-18T16:05:03;54.10;;;28.63;;
59607;SDS011;45426;44.726;10.390;2022-10-18T16:07:29;49.15;;;25.65;;
59607;SDS011;45426;44.726;10.390;2022-10-18T16:09:54;48.97;;;25.40;;
59607;SDS011;45426;44.726;10.390;2022-10-18T16:12:19;49.60;;;26.67;;
59607;SDS011;45426;44.726;10.390;2022-10-18T16:14:45;55.28;;;27.48;;
59607;SDS011;45426;44.726;10.390;2022-10-18T16:17:10;53.00;;;26.30;;
59607;SDS011;45426;44.726;10.390;2022-10-18T16:19:42;53.90;;;27.85;;
59607;SDS011;45426;44.726;10.390;2022-10-18T16:22:11;56.50;;;28.05;;
59607;SDS011;45426;44.726;10.390;2022-10-18T16:24:37;57.45;;;28.80;;
59607;SDS011;45426;44.726;10.390;2022-10-18T16:27:03;52.45;;;28.42;;
59607;SDS011;45426;44.726;10.390;2022-10-18T16:29:29;53.00;;;27.85;;
59607;SDS011;45426;44.726;10.390;2022-10-18T16:31:56;51.95;;;27.73;;
59607;SDS011;45426;44.726;10.390;2022-10-18T16:34:22;55.70;;;28.50;;
59607;SDS011;45426;44.726;10.390;2022-10-18T16:36:50;50.40;;;26.98;;
59607;SDS011;45426;44.726;10.390;2022-10-18T16:39:17;53.70;;;26.75;;
59607;SDS011;45426;44.726;10.390;2022-10-18T16:41:43;52.08;;;26.50;;
59607;SDS011;45426;44.726;10.390;2022-10-18T16:44:09;49.05;;;25.65;;
59607;SDS011;45426;44.726;10.390;2022-10-18T16:46:34;53.30;;;27.48;;
59607;SDS011;45426;44.726;10.390;2022-10-18T16:49:00;52.10;;;26.35;;
59607;SDS011;45426;44.726;10.390;2022-10-18T16:51:26;54.25;;;28.70;;
59607;SDS011;45426;44.726;10.390;2022-10-18T16:53:52;54.40;;;28.42;;
59607;SDS011;45426;44.726;10.390;2022-10-18T16:56:28;59.97;;;27.23;;
59607;SDS011;45426;44.726;10.390;2022-10-18T16:58:55;51.50;;;26.85;;
59607;SDS011;45426;44.726;10.390;2022-10-18T17:01:21;52.85;;;29.52;;
59607;SDS011;45426;44.726;10.390;2022-10-18T17:03:48;58.60;;;29.00;;
59607;SDS011;45426;44.726;10.390;2022-10-18T17:08:56;55.28;;;28.70;;
59607;SDS011;45426;44.726;10.390;2022-10-18T17:11:22;54.10;;;28.75;;
59607;SDS011;45426;44.726;10.390;2022-10-18T17:13:49;57.15;;;29.02;;
59607;SDS011;45426;44.726;10.390;2022-10-18T17:18:56;55.35;;;28.38;;
59607;SDS011;45426;44.726;10.390;2022-10-18T17:21:24;56.03;;;27.95;;
59607;SDS011;45426;44.726;10.390;2022-10-18T17:23:50;54.58;;;28.00;;
59607;SDS011;45426;44.726;10.390;2022-10-18T17:26:18;58.08;;;28.75;;
59607;SDS011;45426;44.726;10.390;2022-10-18T17:28:45;51.15;;;28.30;;
59607;SDS011;45426;44.726;10.390;2022-10-18T17:31:14;58.95;;;29.90;;
59607;SDS011;45426;44.726;10.390;2022-10-18T17:33:40;57.72;;;29.27;;
59607;SDS011;45426;44.726;10.390;2022-10-18T17:36:05;53.97;;;27.33;;
59607;SDS011;45426;44.726;10.390;2022-10-18T17:38:31;60.05;;;29.73;;